Time;durP1;ratioP1;P1;durP2;ratioP2;P2;SDS_P1;SDS_P2;PMS_P1;PMS_P2;Temp;Humidity;BMP_temperature;BMP_pressure;BME280_temperature;BME280_humidity;BME280_pressure;Samples;Min_cycle;Max_cycle;Signal;HPM_P1;HPM_P2
2022/03/25 00:01:25;;;;;;;;;57.25;43.75;;;;;13.52;33.26;101862.44;5075131;27;46173;-77
2022/03/25 00:03:51;;;;;;;;;54.25;41.25;;;;;13.52;32.74;101866.88;5075207;27;45523;-76
2022/03/25 00:06:17;;;;;;;;;48.50;40.75;;;;;13.50;32.71;101861.56;5090238;27;45519;-76
2022/03/25 00:08:42;;;;;;;;;48.25;40.00;;;;;13.46;32.76;101868.69;5095743;27;45470;-77
2022/03/25 00:11:08;;;;;;;;;61.00;46.50;;;;;13.41;33.25;101867.00;5094736;27;46303;-77
2022/03/25 00:13:33;;;;;;;;;59.25;41.75;;;;;13.45;32.40;101866.03;5096513;27;45324;-77
2022/03/25 00:15:59;;;;;;;;;55.75;43.50;;;;;13.41;32.81;101865.22;5079002;27;45504;-76
2022/03/25 00:18:24;;;;;;;;;50.75;41.00;;;;;13.40;32.78;101867.88;5077176;27;45472;-76
2022/03/25 00:20:50;;;;;;;;;39.75;36.00;;;;;13.37;33.01;101873.22;5076248;27;46015;-76
2022/03/25 00:23:16;;;;;;;;;51.75;41.25;;;;;13.33;32.76;101865.28;5075256;27;45434;-77
2022/03/25 00:25:43;;;;;;;;;53.50;45.00;;;;;13.27;33.19;101862.69;5075136;27;45427;-80
2022/03/25 00:28:08;;;;;;;;;38.75;37.75;;;;;13.29;33.13;101866.19;5077019;27;45382;-80
2022/03/25 00:30:34;;;;;;;;;53.00;42.00;;;;;13.23;32.95;101858.28;5088649;27;46083;-81
2022/03/25 00:32:59;;;;;;;;;52.50;42.00;;;;;13.25;33.44;101874.19;5076620;27;45466;-82
2022/03/25 00:35:25;;;;;;;;;54.25;42.00;;;;;13.23;33.46;101871.56;5076923;27;45430;-79
2022/03/25 00:37:50;;;;;;;;;60.00;46.00;;;;;13.18;33.74;101868.09;5080289;27;45538;-80
2022/03/25 00:40:16;;;;;;;;;52.25;45.50;;;;;13.10;33.76;101865.53;5094209;27;45491;-81
2022/03/25 00:42:42;;;;;;;;;57.50;42.25;;;;;13.05;34.21;101866.44;5103023;27;45422;-80
2022/03/25 00:45:08;;;;;;;;;55.50;44.50;;;;;12.98;34.40;101863.84;5097380;27;48247;-80
2022/03/25 00:47:36;;;;;;;;;51.50;41.75;;;;;12.93;34.03;101865.66;5083874;27;46135;-80
2022/03/25 00:50:02;;;;;;;;;54.25;44.25;;;;;12.87;34.25;101862.19;5077008;27;46245;-80
2022/03/25 00:52:27;;;;;;;;;51.75;43.25;;;;;12.87;34.62;101868.38;5082405;27;45514;-80
2022/03/25 00:54:53;;;;;;;;;59.25;45.25;;;;;12.85;34.81;101864.00;5076881;27;45428;-79
2022/03/25 00:57:19;;;;;;;;;48.25;39.25;;;;;12.83;34.44;101866.66;5086236;27;45374;-80
2022/03/25 00:59:45;;;;;;;;;59.00;45.00;;;;;12.82;34.24;101858.72;5096247;27;45387;-81
2022/03/25 01:02:12;;;;;;;;;59.75;49.50;;;;;12.79;35.07;101863.13;5096082;27;45338;-80
2022/03/25 01:04:37;;;;;;;;;40.25;28.50;;;;;12.65;34.78;101846.47;5079457;27;45506;-79
2022/03/25 01:07:04;;;;;;;;;54.75;41.75;;;;;12.72;34.54;101860.53;5075317;27;45373;-79
2022/03/25 01:09:29;;;;;;;;;52.50;42.50;;;;;12.73;34.95;101865.84;5081827;27;46280;-79
2022/03/25 01:11:54;;;;;;;;;55.75;42.00;;;;;12.71;35.07;101861.47;5097033;27;45396;-79
2022/03/25 01:14:21;;;;;;;;;60.50;48.50;;;;;12.65;34.97;101858.84;5095968;27;45470;-80
2022/03/25 01:16:47;;;;;;;;;52.25;43.50;;;;;12.62;35.36;101863.28;5086606;27;45501;-80
2022/03/25 01:19:12;;;;;;;;;53.00;43.00;;;;;12.50;35.29;101847.47;5077035;27;46148;-81
2022/03/25 01:21:37;;;;;;;;;57.50;43.25;;;;;12.52;34.82;101850.97;5076763;28;45376;-80
2022/03/25 01:24:04;;;;;;;;;59.00;44.25;;;;;12.50;34.84;101844.81;5079379;27;45304;-80
2022/03/25 01:26:30;;;;;;;;;54.00;44.50;;;;;12.47;35.43;101847.50;5074667;27;45444;-80
2022/03/25 01:28:55;;;;;;;;;57.50;43.75;;;;;12.48;35.20;101848.38;5075145;27;45374;-79
2022/03/25 01:31:21;;;;;;;;;60.50;49.00;;;;;12.44;35.60;101842.22;5076481;27;45432;-79
2022/03/25 01:33:46;;;;;;;;;61.00;45.75;;;;;12.42;34.98;101844.88;5073458;28;45485;-79
2022/03/25 01:36:13;;;;;;;;;59.00;45.25;;;;;12.38;35.56;101839.63;5076174;27;45531;-80
2022/03/25 01:38:39;;;;;;;;;54.25;44.25;;;;;12.33;35.47;101838.75;5079361;27;46133;-80
2022/03/25 01:41:07;;;;;;;;;50.75;42.75;;;;;12.33;35.76;101833.44;5095473;27;45379;-81
2022/03/25 01:43:32;;;;;;;;;62.25;45.25;;;;;12.29;35.98;101834.38;5095916;27;45539;-80
2022/03/25 01:45:58;;;;;;;;;63.50;47.25;;;;;12.25;35.67;101829.09;5095535;27;45509;-80
2022/03/25 01:48:24;;;;;;;;;54.75;45.50;;;;;12.21;35.64;101830.00;5093853;27;45550;-79
2022/03/25 01:50:49;;;;;;;;;54.25;44.75;;;;;12.22;35.87;101826.47;5095089;27;45386;-81
2022/03/25 01:53:25;;;;;;;;;52.50;41.50;;;;;12.21;36.11;101830.00;5096817;27;45416;-81
2022/03/25 01:55:58;;;;;;;;;60.50;47.50;;;;;12.11;36.19;101814.19;5098202;27;45449;-80
2022/03/25 01:58:26;;;;;;;;;58.50;44.50;;;;;12.13;36.21;101825.63;5096677;27;45386;-80
2022/03/25 02:00:52;;;;;;;;;55.75;45.25;;;;;12.04;36.09;101815.97;5099062;27;45411;-80
2022/03/25 02:03:18;;;;;;;;;59.25;45.75;;;;;12.08;36.07;101836.28;5099469;27;45389;-81
2022/03/25 02:05:44;;;;;;;;;53.25;43.75;;;;;11.88;36.31;101800.13;5098371;27;45347;-80
2022/03/25 02:08:10;;;;;;;;;55.75;46.00;;;;;11.93;36.36;101807.22;5089017;27;45482;-80
2022/03/25 02:10:36;;;;;;;;;58.00;44.25;;;;;11.94;36.33;101819.59;5074616;27;45402;-80
2022/03/25 02:13:02;;;;;;;;;59.50;43.75;;;;;11.97;36.94;101830.16;5074607;27;45279;-80
2022/03/25 02:15:40;;;;;;;;;59.00;45.75;;;;;11.95;36.56;101831.94;5076431;27;45443;-80
2022/03/25 02:18:09;;;;;;;;;55.50;41.50;;;;;11.91;37.08;101831.03;5080237;27;45457;-80
2022/03/25 02:20:37;;;;;;;;;58.25;47.00;;;;;11.88;36.97;101825.75;5078783;27;45408;-80
2022/03/25 02:23:04;;;;;;;;;55.75;46.00;;;;;11.86;36.95;101832.84;5081516;27;45427;-79
2022/03/25 02:25:30;;;;;;;;;55.00;45.75;;;;;11.81;37.01;101827.59;5083898;28;45331;-80
2022/03/25 02:27:57;;;;;;;;;60.50;43.00;;;;;11.78;37.24;101827.59;5077772;27;46528;-81
2022/03/25 02:30:23;;;;;;;;;59.00;46.00;;;;;11.73;37.29;101830.25;5097212;27;45311;-79
2022/03/25 02:32:48;;;;;;;;;57.00;45.75;;;;;11.65;37.33;101828.53;5099642;27;45393;-81
2022/03/25 02:35:13;;;;;;;;;49.00;42.25;;;;;11.64;37.60;101829.41;5082271;27;45854;-80
2022/03/25 02:37:40;;;;;;;;;60.25;44.00;;;;;11.61;37.68;101832.06;5081844;27;46606;-80
2022/03/25 02:40:06;;;;;;;;;51.25;41.25;;;;;11.58;37.81;101832.09;5078531;27;45333;-80
2022/03/25 02:42:31;;;;;;;;;60.25;47.50;;;;;11.51;37.53;101832.13;5077565;28;45411;-80
2022/03/25 02:44:58;;;;;;;;;56.75;44.25;;;;;11.53;37.94;101830.34;5092613;27;45557;-81
2022/03/25 02:47:23;;;;;;;;;47.75;42.00;;;;;11.49;38.14;101838.28;5096964;27;45985;-80
2022/03/25 02:49:51;;;;;;;;;60.75;48.00;;;;;11.45;38.31;101837.44;5085852;27;45589;-80
2022/03/25 02:52:16;;;;;;;;;54.00;44.25;;;;;11.40;38.84;101839.19;5078770;27;45321;-82
2022/03/25 02:54:41;;;;;;;;;63.75;46.50;;;;;11.35;38.53;101839.22;5093918;27;45396;-79
2022/03/25 02:57:07;;;;;;;;;45.00;40.00;;;;;11.28;38.85;101847.19;5099883;27;46305;-81
2022/03/25 02:59:32;;;;;;;;;54.00;42.75;;;;;11.23;39.39;101844.56;5090488;27;45586;-79
2022/03/25 03:01:58;;;;;;;;;59.25;46.50;;;;;11.18;39.09;101839.28;5077827;27;45803;-80
2022/03/25 03:04:23;;;;;;;;;60.75;47.00;;;;;11.19;39.17;101841.03;5076442;27;45472;-80
2022/03/25 03:06:49;;;;;;;;;57.25;45.25;;;;;11.14;39.39;101842.81;5076322;27;46097;-79
2022/03/25 03:09:14;;;;;;;;;51.25;43.25;;;;;11.12;39.35;101835.78;5076684;27;45382;-79
2022/03/25 03:11:40;;;;;;;;;54.00;41.50;;;;;11.12;39.48;101844.59;5077018;27;45353;-79
2022/03/25 03:14:05;;;;;;;;;56.50;47.75;;;;;11.08;39.37;101841.94;5076622;27;45408;-80
2022/03/25 03:16:31;;;;;;;;;58.00;44.75;;;;;11.08;39.61;101847.25;5076965;27;45401;-79
2022/03/25 03:18:56;;;;;;;;;60.50;47.00;;;;;11.01;39.82;101841.09;5079736;27;45379;-80
2022/03/25 03:21:24;;;;;;;;;61.50;47.00;;;;;10.98;39.75;101835.81;5080667;27;45355;-79
2022/03/25 03:23:52;;;;;;;;;55.75;44.00;;;;;10.94;39.77;101837.56;5080441;27;45493;-80
2022/03/25 03:26:19;;;;;;;;;59.00;42.25;;;;;10.93;40.06;101837.56;5083971;27;45448;-79
2022/03/25 03:28:44;;;;;;;;;46.25;38.00;;;;;10.87;39.97;101834.91;5077959;27;45443;-80
2022/03/25 03:31:10;;;;;;;;;59.50;46.50;;;;;10.86;39.81;101836.69;5076823;27;45532;-78
2022/03/25 03:33:36;;;;;;;;;58.25;43.50;;;;;10.71;40.14;101821.72;5075314;27;45359;-81
2022/03/25 03:36:02;;;;;;;;;48.00;43.75;;;;;10.79;39.87;101841.09;5071104;28;46095;-80
2022/03/25 03:38:28;;;;;;;;;55.25;46.25;;;;;10.80;40.23;101832.28;5067117;28;45474;-79
2022/03/25 03:40:54;;;;;;;;;49.25;44.00;;;;;10.78;40.26;101839.34;5076805;28;45415;-80
2022/03/25 03:43:20;;;;;;;;;58.00;44.75;;;;;10.69;40.45;101827.88;5076603;27;45576;-80
2022/03/25 03:45:45;;;;;;;;;53.75;44.00;;;;;10.72;40.72;101835.81;5096383;27;46444;-80
2022/03/25 03:48:11;;;;;;;;;57.00;47.00;;;;;10.61;40.41;101830.53;5099897;27;45377;-80
2022/03/25 03:50:40;;;;;;;;;52.75;43.50;;;;;10.64;40.50;101835.81;5082094;27;45501;-79
2022/03/25 03:53:06;;;;;;;;;52.25;44.25;;;;;10.63;40.79;101839.38;5081601;27;45401;-80
2022/03/25 03:55:32;;;;;;;;;35.75;25.25;;;;;10.60;40.84;101839.38;5088285;27;45568;-79
2022/03/25 03:57:58;;;;;;;;;50.25;44.00;;;;;10.57;40.73;101836.72;5095410;27;45350;-80
2022/03/25 04:00:26;;;;;;;;;57.25;43.50;;;;;10.56;41.05;101838.47;5081166;27;45358;-80
2022/03/25 04:02:52;;;;;;;;;39.25;39.00;;;;;10.54;40.55;101831.44;5080498;27;45344;-80
2022/03/25 04:05:17;;;;;;;;;63.50;46.75;;;;;10.48;40.64;101824.38;5094534;27;45524;-81
2022/03/25 04:07:45;;;;;;;;;60.00;46.75;;;;;10.55;40.96;101835.81;5079833;27;45349;-80
2022/03/25 04:10:12;;;;;;;;;63.25;43.75;;;;;10.53;40.82;101840.25;5080545;27;45417;-79
2022/03/25 04:12:38;;;;;;;;;55.00;43.00;;;;;10.50;41.09;101838.47;5078168;27;45702;-80
2022/03/25 04:15:05;;;;;;;;;56.50;45.25;;;;;10.49;40.92;101841.97;5077444;27;46079;-80
2022/03/25 04:17:31;;;;;;;;;55.00;44.75;;;;;10.49;41.34;101848.16;5075731;27;45361;-80
2022/03/25 04:19:56;;;;;;;;;51.25;46.50;;;;;10.49;40.70;101842.88;5087991;27;45509;-80
2022/03/25 04:22:22;;;;;;;;;63.50;43.75;;;;;10.47;41.86;101839.34;5076699;27;45362;-80
2022/03/25 04:24:47;;;;;;;;;49.00;38.25;;;;;10.44;41.49;101839.34;5088546;27;46448;-78
2022/03/25 04:27:14;;;;;;;;;56.75;45.50;;;;;10.42;41.03;101846.41;5103063;27;45470;-80
2022/03/25 04:29:40;;;;;;;;;55.50;42.00;;;;;10.38;41.24;101849.91;5096930;27;45397;-79
2022/03/25 04:32:06;;;;;;;;;52.00;43.00;;;;;10.38;41.03;101843.75;5095548;27;45423;-80
2022/03/25 04:34:32;;;;;;;;;57.00;45.75;;;;;10.36;41.62;101845.53;5090696;27;45377;-80
2022/03/25 04:36:57;;;;;;;;;47.00;42.00;;;;;10.23;41.56;101828.72;5096099;27;45355;-80
2022/03/25 04:39:22;;;;;;;;;49.25;43.00;;;;;10.30;41.86;101838.44;5076720;27;45538;-80
2022/03/25 04:41:48;;;;;;;;;53.00;41.50;;;;;10.24;41.85;101836.66;5074410;27;45497;-79
2022/03/25 04:44:13;;;;;;;;;64.75;48.75;;;;;10.29;42.00;101847.22;5076036;27;45461;-82
2022/03/25 04:46:39;;;;;;;;;59.75;45.25;;;;;10.21;42.31;101841.94;5074268;27;45533;-80
2022/03/25 04:49:08;;;;;;;;;56.50;45.25;;;;;10.22;42.36;101843.69;5075322;27;45376;-79
2022/03/25 04:51:33;;;;;;;;;57.25;42.75;;;;;10.17;41.89;101842.78;5074898;27;45718;-79
2022/03/25 04:53:59;;;;;;;;;59.50;46.50;;;;;10.20;42.33;101855.13;5080097;27;45418;-80
2022/03/25 04:56:24;;;;;;;;;50.75;43.00;;;;;10.20;42.17;101855.13;5099920;27;45531;-81
2022/03/25 04:58:49;;;;;;;;;50.50;45.25;;;;;10.19;42.26;101858.66;5099056;27;45269;-81
2022/03/25 05:01:15;;;;;;;;;56.75;44.75;;;;;10.16;42.18;101861.28;5096353;27;45393;-81
2022/03/25 05:03:40;;;;;;;;;61.25;46.75;;;;;10.11;42.84;101867.47;5088841;27;45604;-80
2022/03/25 05:06:06;;;;;;;;;51.00;44.00;;;;;10.08;42.72;101866.56;5081410;27;45401;-80
2022/03/25 05:08:31;;;;;;;;;51.00;43.50;;;;;10.05;42.52;101870.09;5076384;27;45286;-80
2022/03/25 05:10:57;;;;;;;;;42.00;31.50;;;;;10.03;42.99;101869.19;5076625;27;45351;-80
2022/03/25 05:13:25;;;;;;;;;49.00;44.00;;;;;10.00;43.07;101863.91;5078377;27;45443;-80
2022/03/25 05:15:50;;;;;;;;;45.25;42.00;;;;;9.95;43.43;101865.66;5095145;27;45410;-80
2022/03/25 05:18:16;;;;;;;;;47.50;37.00;;;;;9.92;43.56;101871.78;5096358;27;45450;-80
2022/03/25 05:20:42;;;;;;;;;44.75;40.50;;;;;9.84;43.15;101872.63;5079390;27;45511;-79
2022/03/25 05:23:08;;;;;;;;;49.00;33.50;;;;;9.83;43.51;101870.91;5078324;27;46071;-80
2022/03/25 05:25:35;;;;;;;;;52.25;44.50;;;;;9.81;42.93;101873.53;5097415;27;45633;-81
2022/03/25 05:28:00;;;;;;;;;51.25;42.75;;;;;9.72;42.85;101858.53;5098112;27;45332;-80
2022/03/25 05:30:33;;;;;;;;;44.50;38.00;;;;;9.74;43.70;101869.97;5096255;27;45274;-80
2022/03/25 05:32:58;;;;;;;;;41.75;35.00;;;;;9.76;43.60;101872.63;5091587;27;45433;-80
2022/03/25 05:35:26;;;;;;;;;48.00;41.00;;;;;9.72;44.07;101869.09;5075228;27;45491;-79
2022/03/25 05:37:52;;;;;;;;;43.00;33.00;;;;;9.70;43.36;101867.31;5074955;27;45475;-79
2022/03/25 05:40:20;;;;;;;;;55.00;45.50;;;;;9.68;43.54;101864.66;5074613;28;45426;-79
2022/03/25 05:42:46;;;;;;;;;50.75;42.75;;;;;9.73;43.57;101870.88;5073050;27;46974;-80
2022/03/25 05:45:12;;;;;;;;;58.25;46.00;;;;;9.68;43.88;101872.59;5083883;27;45420;-80
2022/03/25 05:47:40;;;;;;;;;54.50;46.00;;;;;9.71;43.69;101866.44;5075126;27;45402;-81
2022/03/25 05:50:08;;;;;;;;;52.75;41.75;;;;;9.72;44.17;101879.66;5077997;27;45495;-80
2022/03/25 05:52:35;;;;;;;;;58.50;47.00;;;;;9.78;44.10;101871.75;5090225;27;46780;-81
2022/03/25 05:55:04;;;;;;;;;53.25;44.50;;;;;9.87;43.85;101877.94;5098899;27;45552;-79
2022/03/25 05:57:29;;;;;;;;;59.75;48.50;;;;;9.95;43.72;101877.09;5104375;27;45407;-80
2022/03/25 05:59:57;;;;;;;;;56.00;45.00;;;;;10.10;43.51;101875.38;5097063;27;45388;-81
2022/03/25 06:02:24;;;;;;;;;64.50;48.25;;;;;10.26;43.13;101878.94;5081845;28;46297;-81
2022/03/25 06:04:52;;;;;;;;;59.00;45.25;;;;;10.47;43.17;101886.03;5081013;27;45465;-81
2022/03/25 06:07:17;;;;;;;;;44.00;38.50;;;;;10.67;42.68;101888.69;5077875;28;45514;-81
2022/03/25 06:09:42;;;;;;;;;64.00;49.50;;;;;10.84;42.24;101875.47;5077430;27;45525;-82
2022/03/25 06:12:08;;;;;;;;;61.50;45.50;;;;;11.14;41.34;101879.84;5077693;27;49279;-81
2022/03/25 06:14:34;;;;;;;;;55.50;43.50;;;;;11.49;40.85;101885.94;5077633;27;45504;-81
2022/03/25 06:16:59;;;;;;;;;58.50;41.75;;;;;11.78;40.30;101887.63;5079546;27;45369;-80
2022/03/25 06:19:25;;;;;;;;;57.75;48.50;;;;;12.06;40.01;101883.97;5077348;27;45564;-81
2022/03/25 06:21:50;;;;;;;;;59.75;46.25;;;;;12.40;39.15;101894.41;5094726;27;46613;-81
2022/03/25 06:24:17;;;;;;;;;53.50;42.25;;;;;12.69;38.95;101890.63;5100204;27;45296;-80
2022/03/25 06:26:43;;;;;;;;;68.50;50.00;;;;;13.04;38.18;101891.22;5095326;27;45512;-79
2022/03/25 06:29:09;;;;;;;;;60.25;46.75;;;;;13.35;37.54;101899.81;5081592;27;45488;-81
2022/03/25 06:31:34;;;;;;;;;64.00;48.50;;;;;13.63;36.87;101899.47;5081821;27;46368;-82
2022/03/25 06:33:59;;;;;;;;;60.75;50.00;;;;;14.02;36.62;101900.75;5079662;27;45400;-82
2022/03/25 06:36:25;;;;;;;;;66.50;48.25;;;;;14.45;35.60;101893.94;5078860;27;45472;-80
2022/03/25 06:38:50;;;;;;;;;63.25;47.75;;;;;14.77;35.01;101889.91;5076328;27;45657;-82
2022/03/25 06:41:16;;;;;;;;;56.75;46.50;;;;;15.12;34.28;101901.75;5089859;27;45326;-82
2022/03/25 06:43:41;;;;;;;;;55.50;43.50;;;;;15.44;34.12;101902.91;5100681;27;45392;-82
2022/03/25 06:46:06;;;;;;;;;53.00;43.00;;;;;15.65;33.11;101901.63;5103953;27;45373;-80
2022/03/25 06:48:33;;;;;;;;;59.75;46.75;;;;;15.93;32.76;101903.78;5097299;27;45484;-83
2022/03/25 06:51:00;;;;;;;;;64.50;46.00;;;;;16.30;32.32;101905.59;5069841;28;46281;-82
2022/03/25 06:53:26;;;;;;;;;66.00;48.50;;;;;16.68;32.00;101898.47;5080363;27;45429;-80
2022/03/25 06:55:52;;;;;;;;;66.25;47.50;;;;;16.91;31.17;101900.59;5077313;27;45430;-80
2022/03/25 06:58:18;;;;;;;;;61.25;46.25;;;;;17.25;30.83;101897.06;5082887;27;45500;-81
2022/03/25 07:00:44;;;;;;;;;60.00;46.25;;;;;17.58;30.32;101900.59;5094701;27;46020;-79
2022/03/25 07:03:11;;;;;;;;;60.25;46.50;;;;;18.04;29.89;101908.22;5078506;27;45374;-80
2022/03/25 07:05:37;;;;;;;;;62.25;47.75;;;;;18.22;29.17;101907.66;5079310;27;45254;-82
2022/03/25 07:08:03;;;;;;;;;46.25;39.75;;;;;18.48;28.59;101897.94;5078504;27;45657;-81
2022/03/25 07:10:29;;;;;;;;;55.50;46.00;;;;;18.80;28.30;101898.66;5083127;27;46065;-82
2022/03/25 07:12:55;;;;;;;;;62.75;46.50;;;;;19.04;27.68;101897.00;5076787;27;45372;-82
2022/03/25 07:15:22;;;;;;;;;56.75;45.00;;;;;19.17;27.89;101910.81;5077066;27;45543;-81
2022/03/25 07:17:47;;;;;;;;;67.00;47.75;;;;;19.31;27.48;101899.59;5080698;27;45474;-81
2022/03/25 07:20:15;;;;;;;;;45.75;36.75;;;;;19.60;28.09;101905.72;5080822;27;46182;-80
2022/03/25 07:22:45;;;;;;;;;58.75;44.75;;;;;19.89;27.04;101902.00;5079174;27;45392;-81
2022/03/25 07:25:12;;;;;;;;;58.50;47.50;;;;;20.03;26.27;101907.69;5077455;27;45396;-78
2022/03/25 07:27:37;;;;;;;;;54.25;41.25;;;;;20.11;26.40;101902.00;5077987;27;45493;-79
2022/03/25 07:30:04;;;;;;;;;62.75;47.00;;;;;20.34;26.00;101908.28;5077592;28;46128;-79
2022/03/25 07:32:30;;;;;;;;;62.75;47.00;;;;;20.54;25.52;101913.75;5074439;27;45409;-79
2022/03/25 07:34:55;;;;;;;;;56.25;46.50;;;;;20.70;25.41;101908.63;5073953;27;45481;-79
2022/03/25 07:37:21;;;;;;;;;58.00;46.00;;;;;21.11;25.25;101919.41;5074660;27;45322;-79
2022/03/25 07:39:46;;;;;;;;;61.25;47.25;;;;;21.44;24.48;101923.41;5075264;27;45429;-78
2022/03/25 07:42:11;;;;;;;;;58.25;45.25;;;;;21.67;24.17;101929.56;5074581;27;45524;-77
2022/03/25 07:44:39;;;;;;;;;59.25;45.25;;;;;21.80;24.25;101930.75;5075961;27;45471;-79
2022/03/25 07:47:07;;;;;;;;;62.50;49.50;;;;;22.13;23.58;101922.94;5078081;28;45457;-80
2022/03/25 07:49:38;;;;;;;;;64.00;48.25;;;;;22.25;23.57;101926.00;5076753;27;46241;-80
2022/03/25 07:52:04;;;;;;;;;60.25;49.00;;;;;22.41;22.92;101926.16;5075307;27;45468;-79
2022/03/25 07:54:29;;;;;;;;;56.50;42.25;;;;;22.57;22.78;101931.69;5075284;27;45510;-80
2022/03/25 07:56:58;;;;;;;;;61.00;47.00;;;;;22.60;23.14;101920.75;5078107;27;45423;-81
2022/03/25 07:59:26;;;;;;;;;60.00;45.75;;;;;23.05;22.87;101933.72;5077824;27;45545;-80
2022/03/25 08:01:52;;;;;;;;;62.00;45.75;;;;;23.45;22.15;101932.63;5072591;28;45608;-80
2022/03/25 08:04:19;;;;;;;;;53.00;37.00;;;;;23.56;21.80;101928.41;5075458;27;45413;-81
2022/03/25 08:06:44;;;;;;;;;54.25;45.00;;;;;23.69;22.39;101922.34;5073038;28;45486;-80
2022/03/25 08:09:11;;;;;;;;;59.00;45.75;;;;;24.03;21.25;101921.38;5075417;27;45966;-80
2022/03/25 08:11:42;;;;;;;;;62.00;48.00;;;;;24.24;20.94;101905.78;5075853;27;45407;-80
2022/03/25 08:14:08;;;;;;;;;60.00;44.50;;;;;24.90;20.37;101930.88;5076001;27;45553;-80
2022/03/25 08:16:33;;;;;;;;;62.00;44.75;;;;;24.96;20.29;101927.78;5078389;28;45395;-81
2022/03/25 08:18:58;;;;;;;;;61.50;46.25;;;;;24.57;20.34;101921.03;5076565;27;45933;-81
2022/03/25 08:21:24;;;;;;;;;66.25;49.25;;;;;24.69;20.09;101911.38;5077507;27;45386;-80
2022/03/25 08:29:17;;;;;;;;;57.50;46.25;;;;;25.21;18.76;101930.84;5078190;27;45471;-81
2022/03/25 08:31:44;;;;;;;;;60.25;45.50;;;;;25.61;19.14;101929.28;5077220;27;45477;-80
2022/03/25 08:34:14;;;;;;;;;57.75;45.00;;;;;26.05;19.62;101928.34;5076372;27;45557;-81
2022/03/25 08:36:46;;;;;;;;;57.75;47.75;;;;;26.19;18.70;101929.28;5076619;27;45420;-80
2022/03/25 08:39:12;;;;;;;;;60.25;46.75;;;;;26.36;18.31;101926.34;5076190;27;46205;-80
2022/03/25 08:41:37;;;;;;;;;56.50;45.25;;;;;26.26;18.32;101925.19;5076531;28;45312;-80
2022/03/25 08:44:03;;;;;;;;;59.25;47.50;;;;;26.36;18.54;101931.78;5075031;27;45492;-80
2022/03/25 08:46:28;;;;;;;;;55.00;39.00;;;;;26.21;17.87;101939.06;5075355;27;45425;-80
2022/03/25 08:48:54;;;;;;;;;61.00;47.50;;;;;26.30;18.42;101932.16;5075243;27;46120;-80
2022/03/25 08:51:19;;;;;;;;;47.75;40.75;;;;;26.47;18.32;101943.75;5074140;27;45411;-82
2022/03/25 08:53:46;;;;;;;;;55.00;43.00;;;;;25.91;17.90;101943.72;5077596;27;45389;-79
2022/03/25 08:56:12;;;;;;;;;57.00;45.75;;;;;26.01;18.47;101932.22;5075287;27;45361;-80
2022/03/25 08:58:39;;;;;;;;;62.50;49.25;;;;;26.59;18.52;101921.25;5075320;28;46323;-80
2022/03/25 09:01:04;;;;;;;;;59.00;46.25;;;;;26.28;18.04;101939.50;5078539;28;45458;-80
2022/03/25 09:03:32;;;;;;;;;58.75;45.25;;;;;26.47;17.88;101933.75;5081461;27;45529;-80
2022/03/25 09:05:57;;;;;;;;;42.75;36.25;;;;;26.19;17.51;101943.72;5078902;27;45503;-80
2022/03/25 09:08:24;;;;;;;;;57.00;44.50;;;;;25.60;18.34;101942.91;5077274;27;46359;-81
2022/03/25 09:10:50;;;;;;;;;58.50;46.75;;;;;25.68;18.38;101941.47;5075782;27;45388;-80
2022/03/25 09:13:17;;;;;;;;;57.00;45.75;;;;;26.01;18.64;101934.03;5074255;27;45593;-80
2022/03/25 09:15:42;;;;;;;;;59.75;48.00;;;;;26.25;17.76;101942.41;5074247;28;45555;-80
2022/03/25 09:18:08;;;;;;;;;57.25;45.00;;;;;26.01;17.85;101950.28;5088600;27;45572;-80
2022/03/25 09:20:33;;;;;;;;;57.25;46.25;;;;;25.71;18.17;101941.28;5076292;27;45700;-80
2022/03/25 09:22:59;;;;;;;;;63.25;49.25;;;;;25.84;17.83;101946.81;5074226;27;45484;-81
2022/03/25 09:25:24;;;;;;;;;57.00;45.00;;;;;26.03;17.96;101945.66;5074600;27;45606;-79
2022/03/25 09:27:50;;;;;;;;;61.00;47.75;;;;;25.91;17.97;101947.28;5075366;27;45297;-80
2022/03/25 09:30:16;;;;;;;;;67.00;48.25;;;;;26.13;18.40;101930.56;5078772;27;45420;-77
2022/03/25 09:32:42;;;;;;;;;66.25;50.75;;;;;26.28;17.85;101938.66;5078789;27;45367;-79
2022/03/25 09:35:11;;;;;;;;;64.00;49.75;;;;;25.45;18.30;101937.50;5075643;27;45605;-81
2022/03/25 09:37:39;;;;;;;;;64.75;50.00;;;;;25.04;18.33;101937.25;5073653;27;45583;-80
2022/03/25 09:40:08;;;;;;;;;63.25;48.00;;;;;24.64;18.94;101913.47;5055950;28;45489;-80
2022/03/25 09:42:34;;;;;;;;;71.00;52.00;;;;;24.56;19.13;101940.91;5071435;27;45577;-81
2022/03/25 09:45:02;;;;;;;;;61.50;49.75;;;;;24.59;19.77;101935.34;5075891;27;45636;-80
2022/03/25 09:47:27;;;;;;;;;64.25;48.00;;;;;24.58;19.69;101943.53;5075423;27;45560;-80
2022/03/25 09:49:53;;;;;;;;;62.75;47.00;;;;;24.98;19.52;101928.56;5076291;27;45477;-80
2022/03/25 09:52:18;;;;;;;;;53.50;43.75;;;;;25.31;18.81;101932.03;5079275;27;45355;-80
2022/03/25 09:54:44;;;;;;;;;66.75;50.00;;;;;25.82;18.22;101942.44;5076116;28;45331;-79
2022/03/25 09:57:09;;;;;;;;;62.75;48.75;;;;;25.18;18.57;101937.31;5077869;27;46644;-80
2022/03/25 09:59:34;;;;;;;;;64.00;50.75;;;;;24.42;18.56;101952.50;5076235;27;45376;-80
2022/03/25 10:02:00;;;;;;;;;66.00;49.75;;;;;24.25;19.31;101931.00;5074738;27;45370;-80
2022/03/25 10:04:37;;;;;;;;;63.75;50.00;;;;;24.76;19.63;101937.06;5074557;27;45494;-80
2022/03/25 10:07:24;;;;;;;;;58.75;46.00;;;;;25.49;20.04;101927.34;5068169;27;46407;-79
2022/03/25 10:10:08;;;;;;;;;69.50;52.50;;;;;25.98;18.81;101929.72;5066788;27;45549;-80
2022/03/25 10:12:34;;;;;;;;;57.00;46.50;;;;;26.35;18.30;101924.59;5074882;27;45519;-75
2022/03/25 10:15:25;;;;;;;;;62.00;49.75;;;;;26.59;17.28;101926.66;5068410;27;45550;-74
2022/03/25 10:17:56;;;;;;;;;69.50;49.50;;;;;26.32;17.66;101927.50;5066508;27;46268;-74
2022/03/25 10:20:38;;;;;;;;;66.50;48.25;;;;;26.26;17.81;101930.63;5073549;27;45409;-75
2022/03/25 10:23:08;;;;;;;;;68.00;50.75;;;;;26.14;17.61;101924.16;5073454;27;45452;-76
2022/03/25 10:25:53;;;;;;;;;62.75;49.75;;;;;25.42;18.28;101929.56;5075378;27;45621;-75
2022/03/25 10:28:18;;;;;;;;;60.75;48.50;;;;;25.21;18.28;101926.31;5070492;27;45405;-75
2022/03/25 10:30:47;;;;;;;;;60.50;49.00;;;;;25.15;18.18;101938.34;5073326;27;45512;-75
2022/03/25 10:33:21;;;;;;;;;66.00;49.25;;;;;24.90;18.13;101929.97;5071689;27;45381;-76
2022/03/25 10:35:52;;;;;;;;;63.25;52.00;;;;;24.87;18.31;101924.75;5077768;27;45394;-74
2022/03/25 10:38:17;;;;;;;;;64.00;47.50;;;;;25.03;18.49;101922.03;5074798;27;47124;-75
2022/03/25 10:40:53;;;;;;;;;63.00;51.00;;;;;25.58;19.39;101918.66;5075982;27;45580;-74
2022/03/25 10:43:19;;;;;;;;;62.00;47.50;;;;;25.45;18.34;101910.44;5077512;27;45909;-76
2022/03/25 10:45:46;;;;;;;;;65.75;46.50;;;;;25.55;18.33;101918.84;5077761;27;45414;-75
2022/03/25 10:48:14;;;;;;;;;58.00;47.50;;;;;25.58;18.40;101918.66;5079697;27;46485;-74
2022/03/25 10:50:56;;;;;;;;;61.75;46.25;;;;;25.84;18.11;101918.84;5076277;28;45504;-78
2022/03/25 10:53:22;;;;;;;;;64.25;51.00;;;;;25.86;18.40;101915.06;5074924;27;45481;-74
2022/03/25 10:56:03;;;;;;;;;54.50;41.00;;;;;26.12;18.19;101912.56;5073994;27;45663;-79
2022/03/25 10:58:29;;;;;;;;;66.00;46.00;;;;;26.38;18.24;101915.41;5070199;27;45408;-76
2022/03/25 11:00:56;;;;;;;;;67.75;51.75;;;;;26.50;18.73;101905.59;5073426;28;45393;-76
2022/03/25 11:03:23;;;;;;;;;63.00;50.25;;;;;26.28;17.65;101917.84;5070791;27;45501;-77
2022/03/25 11:05:49;;;;;;;;;62.00;48.25;;;;;26.31;17.98;101917.63;5074855;27;45555;-75
2022/03/25 11:08:14;;;;;;;;;66.00;46.75;;;;;26.06;17.03;101912.97;5074968;27;46154;-75
2022/03/25 11:10:40;;;;;;;;;58.75;48.25;;;;;26.02;18.03;101916.84;5072403;27;45453;-77
2022/03/25 11:13:05;;;;;;;;;56.50;46.50;;;;;26.22;17.67;101908.28;5073072;27;45531;-77